createdAt,value
2018-08-08T00:00:58.529Z,995.86
2018-08-08T00:02:08.608Z,995.93
2018-08-08T00:03:18.687Z,995.99
2018-08-08T00:04:28.818Z,995.99
2018-08-08T00:05:38.900Z,995.95
2018-08-08T00:06:48.982Z,995.93
2018-08-08T00:07:58.798Z,995.92
2018-08-08T00:09:08.086Z,995.91
2018-08-08T00:10:17.934Z,995.89
2018-08-08T00:11:27.739Z,995.85
2018-08-08T00:12:37.545Z,995.85
2018-08-08T00:13:47.645Z,995.83
2018-08-08T00:14:57.467Z,995.9
2018-08-08T00:16:07.542Z,995.9
2018-08-08T00:17:17.615Z,995.9
2018-08-08T00:18:27.704Z,995.86
2018-08-08T00:19:37.502Z,995.87
2018-08-08T00:20:47.602Z,995.84
2018-08-08T00:21:57.678Z,995.81
2018-08-08T00:23:07.795Z,995.8
2018-08-08T00:24:17.883Z,995.78
2018-08-08T00:25:27.965Z,995.74
2018-08-08T00:26:38.037Z,995.7
2018-08-08T00:27:48.149Z,995.64
2018-08-08T00:28:58.235Z,995.67
2018-08-08T00:30:08.328Z,995.69
2018-08-08T00:31:18.135Z,995.66
2018-08-08T00:32:27.938Z,995.73
2018-08-08T00:33:37.759Z,995.71
2018-08-08T00:34:47.584Z,995.79
2018-08-08T00:35:57.665Z,995.77
2018-08-08T00:37:07.737Z,995.8
2018-08-08T00:38:17.813Z,995.8
2018-08-08T00:39:27.905Z,995.78
2018-08-08T00:40:37.724Z,995.79
2018-08-08T00:41:47.283Z,995.83
2018-08-08T00:42:57.365Z,995.82
2018-08-08T00:44:06.920Z,995.78
2018-08-08T00:45:16.998Z,995.73
2018-08-08T00:46:26.824Z,995.74
2018-08-08T00:47:36.906Z,995.76
2018-08-08T00:48:46.718Z,995.75
2018-08-08T00:49:56.821Z,995.76
2018-08-08T00:51:06.372Z,995.76
2018-08-08T00:52:16.450Z,995.79
2018-08-08T00:53:26.541Z,995.81
2018-08-08T00:54:36.623Z,995.86
2018-08-08T00:55:46.705Z,995.86
2018-08-08T00:56:56.512Z,995.9
2018-08-08T00:58:06.607Z,995.87
2018-08-08T00:59:16.159Z,995.88
2018-08-08T01:00:25.980Z,995.94
2018-08-08T01:01:36.084Z,995.89
2018-08-08T01:02:46.157Z,995.84
2018-08-08T01:03:55.981Z,995.88
2018-08-08T01:05:06.074Z,995.86
2018-08-08T01:06:16.135Z,995.84
2018-08-08T01:07:26.226Z,995.83
2018-08-08T01:08:36.152Z,995.8
2018-08-08T01:09:46.938Z,995.8
2018-08-08T01:10:56.737Z,995.78
2018-08-08T01:12:06.810Z,995.74
2018-08-08T01:13:16.887Z,995.72
2018-08-08T01:14:27.026Z,995.74
2018-08-08T01:15:36.851Z,995.73
2018-08-08T01:16:46.664Z,995.71
2018-08-08T01:17:56.473Z,995.7
2018-08-08T01:19:06.544Z,995.73
2018-08-08T01:20:16.428Z,995.65
2018-08-08T01:21:26.510Z,995.6
2018-08-08T01:22:36.330Z,995.62
2018-08-08T01:23:46.403Z,995.59
2018-08-08T01:24:56.487Z,995.55
2018-08-08T01:26:06.614Z,995.56
2018-08-08T01:27:16.450Z,995.56
2018-08-08T01:28:26.523Z,995.58
2018-08-08T01:29:36.603Z,995.57
2018-08-08T01:30:46.678Z,995.55
2018-08-08T01:31:56.557Z,995.56
2018-08-08T01:33:06.639Z,995.54
2018-08-08T01:34:16.710Z,995.52
2018-08-08T01:35:26.522Z,995.55
2018-08-08T01:36:36.605Z,995.53
2018-08-08T01:37:46.426Z,995.53
2018-08-08T01:38:56.232Z,995.51
2018-08-08T01:40:06.314Z,995.45
2018-08-08T01:41:16.411Z,995.45
2018-08-08T01:42:26.476Z,995.45
2018-08-08T01:43:36.296Z,995.5
2018-08-08T01:44:45.849Z,995.47
2018-08-08T01:45:56.085Z,995.47
2018-08-08T01:47:06.420Z,995.47
2018-08-08T01:48:16.502Z,995.52
2018-08-08T01:49:26.324Z,995.53
2018-08-08T01:50:36.403Z,995.54
2018-08-08T01:51:46.243Z,995.48
2018-08-08T01:52:56.068Z,995.52
2018-08-08T01:54:06.148Z,995.48
2018-08-08T01:55:16.219Z,995.48
2018-08-08T01:56:26.052Z,995.47
2018-08-08T01:57:36.144Z,995.49
2018-08-08T01:58:46.222Z,995.47
2018-08-08T01:59:56.314Z,995.48
2018-08-08T02:01:06.405Z,995.41
2018-08-08T02:02:15.959Z,995.39
2018-08-08T02:03:26.030Z,995.4
2018-08-08T02:04:36.103Z,995.35
2018-08-08T02:05:45.659Z,995.31
2018-08-08T02:06:55.730Z,995.32
2018-08-08T02:08:05.801Z,995.3
2018-08-08T02:09:15.874Z,995.29
2018-08-08T02:10:25.962Z,995.32
2018-08-08T02:11:36.031Z,995.29
2018-08-08T02:12:46.112Z,995.32
2018-08-08T02:13:56.176Z,995.29
2018-08-08T02:15:06.261Z,995.3
2018-08-08T02:16:16.083Z,995.29
2018-08-08T02:17:25.890Z,995.28
2018-08-08T02:18:35.751Z,995.26
2018-08-08T02:19:45.835Z,995.23
2018-08-08T02:20:55.405Z,995.18
2018-08-08T02:22:05.473Z,995.2
2018-08-08T02:23:15.553Z,995.2
2018-08-08T02:24:25.671Z,995.17
2018-08-08T02:25:35.743Z,995.16
2018-08-08T02:26:45.596Z,995.18
2018-08-08T02:27:55.673Z,995.19
2018-08-08T02:29:05.478Z,995.21
2018-08-08T02:30:15.543Z,995.22
2018-08-08T02:31:25.634Z,995.23
2018-08-08T02:32:35.722Z,995.21
2018-08-08T02:33:45.807Z,995.2
2018-08-08T02:34:55.623Z,995.2
2018-08-08T02:36:05.694Z,995.21
2018-08-08T02:37:15.810Z,995.17
2018-08-08T02:38:26.477Z,995.18
2018-08-08T02:39:36.569Z,995.17
2018-08-08T02:40:46.375Z,995.18
2018-08-08T02:41:56.496Z,995.15
2018-08-08T02:43:06.598Z,995.15
2018-08-08T02:44:16.683Z,995.16
2018-08-08T02:45:26.771Z,995.2
2018-08-08T02:46:36.870Z,995.16
2018-08-08T02:47:46.965Z,995.16
2018-08-08T02:48:57.048Z,995.19
2018-08-08T02:50:06.864Z,995.18
2018-08-08T02:51:16.683Z,995.19
2018-08-08T02:52:26.773Z,995.2
2018-08-08T02:53:36.640Z,995.21
2018-08-08T02:54:46.725Z,995.19
2018-08-08T02:55:56.273Z,995.23
2018-08-08T02:57:06.380Z,995.24
2018-08-08T02:58:16.448Z,995.19
2018-08-08T02:59:26.273Z,995.23
2018-08-08T03:00:36.103Z,995.26
2018-08-08T03:01:45.918Z,995.23
2018-08-08T03:34:51.474Z,995.22
2018-08-08T03:36:01.547Z,995.26
2018-08-08T03:37:11.612Z,995.24
2018-08-08T03:38:21.676Z,995.24
2018-08-08T03:39:31.742Z,995.24
2018-08-08T03:40:41.603Z,995.22
2018-08-08T03:41:51.399Z,995.22
2018-08-08T03:43:01.465Z,995.19
2018-08-08T03:44:11.548Z,995.23
2018-08-08T03:45:21.614Z,995.22
2018-08-08T03:46:31.466Z,995.19
2018-08-08T03:47:41.525Z,995.25
2018-08-08T03:48:51.604Z,995.22
2018-08-08T03:50:01.666Z,995.21
2018-08-08T03:51:11.733Z,995.25
2018-08-08T03:52:21.862Z,995.26
2018-08-08T03:53:31.932Z,995.22
2018-08-08T03:54:42.015Z,995.25
2018-08-08T03:55:51.864Z,995.29
2018-08-08T03:57:01.950Z,995.27
2018-08-08T03:58:12.077Z,995.3
2018-08-08T03:59:22.162Z,995.28
2018-08-08T04:00:32.258Z,995.24
2018-08-08T04:01:42.379Z,995.26
2018-08-08T04:02:52.591Z,995.29
2018-08-08T04:04:02.496Z,995.31
2018-08-08T04:05:12.601Z,995.26
2018-08-08T04:06:22.678Z,995.27
2018-08-08T04:07:32.782Z,995.26
2018-08-08T04:08:42.851Z,995.26
2018-08-08T04:09:52.976Z,995.26
2018-08-08T04:11:03.040Z,995.25
2018-08-08T04:12:13.109Z,995.24
2018-08-08T04:13:23.205Z,995.23
2018-08-08T04:14:33.423Z,995.23
2018-08-08T04:15:43.219Z,995.27
2018-08-08T04:16:53.274Z,995.31
2018-08-08T04:18:03.388Z,995.35
2018-08-08T04:19:13.477Z,995.38
2018-08-08T04:20:23.288Z,995.4
2018-08-08T04:21:33.417Z,995.4
2018-08-08T04:22:43.489Z,995.38
2018-08-08T04:23:53.557Z,995.38
2018-08-08T04:25:03.631Z,995.42
2018-08-08T04:26:13.431Z,995.45
2018-08-08T04:27:23.297Z,995.44
2018-08-08T04:28:33.386Z,995.44
2018-08-08T04:29:43.464Z,995.45
2018-08-08T04:30:53.540Z,995.44
2018-08-08T04:32:03.717Z,995.46
2018-08-08T04:33:13.548Z,995.48
2018-08-08T04:34:23.098Z,995.43
2018-08-08T04:35:32.938Z,995.48
2018-08-08T04:36:43.011Z,995.55
2018-08-08T04:37:53.079Z,995.59
2018-08-08T04:39:03.198Z,995.52
2018-08-08T04:40:13.272Z,995.48
2018-08-08T04:41:23.343Z,995.47
2018-08-08T04:42:33.429Z,995.46
2018-08-08T04:43:43.246Z,995.47
2018-08-08T04:44:53.325Z,995.48
2018-08-08T04:46:03.382Z,995.47
2018-08-08T04:47:13.465Z,995.52
2018-08-08T04:48:23.547Z,995.53
2018-08-08T04:49:33.619Z,995.52
2018-08-08T04:50:43.695Z,995.66
2018-08-08T04:51:53.910Z,995.69
2018-08-08T04:53:04.000Z,995.66
2018-08-08T04:54:14.076Z,995.76
2018-08-08T04:55:23.887Z,995.78
2018-08-08T04:56:34.316Z,995.74
2018-08-08T04:57:44.396Z,995.81
2018-08-08T04:58:54.487Z,995.78
2018-08-08T05:00:04.570Z,995.79
2018-08-08T05:01:14.546Z,995.98
2018-08-08T05:02:24.370Z,996.19
2018-08-08T05:03:34.439Z,996.06
2018-08-08T05:04:44.509Z,996.05
2018-08-08T05:05:54.634Z,996.11
2018-08-08T05:07:04.714Z,996
2018-08-08T05:08:14.778Z,995.98
2018-08-08T05:09:24.857Z,996.02
2018-08-08T05:10:34.671Z,996.1
2018-08-08T05:11:44.751Z,996.05
2018-08-08T05:12:54.902Z,995.99
2018-08-08T05:14:04.986Z,995.98
2018-08-08T05:15:15.057Z,996.07
2018-08-08T05:16:25.139Z,996.12
2018-08-08T05:17:34.957Z,996.15
2018-08-08T05:18:44.804Z,996.21
2018-08-08T05:19:54.598Z,996.16
2018-08-08T05:21:04.934Z,996.14
2018-08-08T05:22:15.011Z,996.17
2018-08-08T05:23:24.825Z,996.22
2018-08-08T05:24:34.627Z,996.22
2018-08-08T05:25:44.197Z,996.13
2018-08-08T05:26:54.070Z,996.18
2018-08-08T05:28:04.150Z,996.19
2018-08-08T05:29:14.222Z,996.2
2018-08-08T05:30:24.332Z,996.22
2018-08-08T05:31:34.193Z,996.25
2018-08-08T05:32:44.294Z,996.19
2018-08-08T05:33:54.399Z,996.2
2018-08-08T05:35:04.511Z,996.23
2018-08-08T05:36:14.628Z,996.19
2018-08-08T05:37:25.066Z,996.15
2018-08-08T05:38:35.130Z,996.13
2018-08-08T05:39:45.205Z,996.08
2018-08-08T05:40:55.286Z,996.1
2018-08-08T05:42:05.108Z,996.09
2018-08-08T05:43:14.645Z,996.09
2018-08-08T05:44:24.456Z,996.17
2018-08-08T05:45:34.546Z,996.2
2018-08-08T05:46:44.610Z,996.19
2018-08-08T05:47:54.683Z,996.16
2018-08-08T05:49:04.776Z,996.16
2018-08-08T05:50:14.914Z,996.14
2018-08-08T05:51:24.986Z,996.15
2018-08-08T05:52:35.073Z,996.14
2018-08-08T05:53:45.152Z,996.06
2018-08-08T05:54:55.243Z,996.05
2018-08-08T05:56:05.333Z,996.04
2018-08-08T05:57:15.153Z,996.04
2018-08-08T05:58:25.227Z,996.05
2018-08-08T05:59:35.049Z,996.06
2018-08-08T06:00:44.609Z,996.07
2018-08-08T06:01:54.433Z,996.1
2018-08-08T06:03:04.278Z,996.11
2018-08-08T06:04:14.357Z,995.92
2018-08-08T06:05:24.425Z,995.83
2018-08-08T06:06:34.509Z,995.81
2018-08-08T06:07:44.586Z,995.81
2018-08-08T06:08:54.674Z,995.82
2018-08-08T06:10:04.481Z,995.78
2018-08-08T06:11:14.296Z,995.8
2018-08-08T06:12:24.366Z,995.78
2018-08-08T06:13:34.174Z,995.8
2018-08-08T06:14:44.238Z,995.79
2018-08-08T06:15:54.306Z,995.84
2018-08-08T06:17:04.115Z,995.88
2018-08-08T06:18:13.940Z,995.91
2018-08-08T06:19:24.036Z,995.92
2018-08-08T06:20:34.129Z,995.92
2018-08-08T06:21:44.201Z,995.94
2018-08-08T06:22:54.275Z,995.91
2018-08-08T06:24:04.085Z,995.9
2018-08-08T06:25:14.154Z,995.94
2018-08-08T06:26:24.279Z,995.92
2018-08-08T06:27:34.348Z,995.91
2018-08-08T06:28:44.169Z,995.97
2018-08-08T06:29:54.247Z,995.93
2018-08-08T06:31:04.091Z,995.94
2018-08-08T06:32:14.197Z,995.92
2018-08-08T06:33:24.274Z,995.92
2018-08-08T06:34:34.389Z,995.89
2018-08-08T06:35:44.452Z,995.85
2018-08-08T06:36:54.289Z,995.91
2018-08-08T06:38:04.355Z,995.96
2018-08-08T06:39:14.165Z,995.97
2018-08-08T06:40:23.993Z,995.99
2018-08-08T06:41:33.809Z,995.99
2018-08-08T06:42:43.884Z,996.02
2018-08-08T06:43:54.150Z,996.05
2018-08-08T06:45:04.613Z,996.06
2018-08-08T06:46:14.689Z,996.12
2018-08-08T06:47:24.771Z,996.11
2018-08-08T06:48:34.848Z,996.11
2018-08-08T06:49:44.670Z,996.15
2018-08-08T06:50:54.551Z,996.1
2018-08-08T06:52:04.361Z,996.05
2018-08-08T06:53:14.439Z,995.99
2018-08-08T06:54:24.514Z,996
2018-08-08T06:55:34.583Z,995.99
2018-08-08T06:56:44.671Z,995.96
2018-08-08T06:57:54.803Z,995.93
2018-08-08T06:59:04.639Z,995.95
2018-08-08T07:00:14.732Z,995.89
2018-08-08T07:01:24.884Z,995.92
2018-08-08T07:02:34.963Z,995.9
2018-08-08T07:03:45.093Z,995.89
2018-08-08T07:04:54.919Z,995.9
2018-08-08T07:06:04.991Z,995.91
2018-08-08T07:07:15.064Z,995.9
2018-08-08T07:08:24.887Z,995.93
2018-08-08T07:09:34.716Z,995.98
2018-08-08T07:10:44.527Z,995.95
2018-08-08T07:11:54.622Z,995.92
2018-08-08T07:13:04.444Z,995.91
2018-08-08T07:14:14.570Z,995.93
2018-08-08T07:15:25.018Z,995.97
2018-08-08T07:16:35.101Z,995.93
2018-08-08T07:17:45.173Z,995.92
2018-08-08T07:18:55.259Z,995.95
2018-08-08T07:20:05.337Z,995.97
2018-08-08T07:21:15.152Z,995.93
2018-08-08T07:22:25.225Z,995.96
2018-08-08T07:23:35.320Z,995.91
2018-08-08T07:24:45.404Z,995.94
2018-08-08T07:25:55.236Z,996.01
2018-08-08T07:27:05.315Z,995.97
2018-08-08T07:28:15.419Z,996.01
2018-08-08T07:29:25.228Z,996
2018-08-08T07:30:35.057Z,996.06
2018-08-08T07:31:45.130Z,996.06
2018-08-08T07:32:54.971Z,996.08
2018-08-08T07:34:05.054Z,996.1
2018-08-08T07:35:15.157Z,996.05
2018-08-08T07:36:25.231Z,996.05
2018-08-08T07:37:35.040Z,996.07
2018-08-08T07:38:45.111Z,996.03
2018-08-08T07:39:55.266Z,996.02
2018-08-08T07:41:05.540Z,996.01
2018-08-08T07:42:15.746Z,996.06
2018-08-08T07:43:25.833Z,996.05
2018-08-08T07:44:35.998Z,996.04
2018-08-08T07:45:46.134Z,996.08
2018-08-08T07:46:56.513Z,996.1
2018-08-08T07:48:06.655Z,996.1
2018-08-08T07:49:16.745Z,996.1
2018-08-08T07:50:26.564Z,996.12
2018-08-08T07:51:36.633Z,996.12
2018-08-08T07:52:46.436Z,996.11
2018-08-08T07:53:56.238Z,996.09
2018-08-08T07:55:06.078Z,996.07
2018-08-08T07:56:16.166Z,996.06
2018-08-08T07:57:26.008Z,996.04
2018-08-08T07:58:35.827Z,996.07
2018-08-08T07:59:45.888Z,996.07
2018-08-08T08:00:55.960Z,996.05
2018-08-08T08:02:06.032Z,996.05
2018-08-08T08:03:16.042Z,996.04
2018-08-08T08:04:26.104Z,996.06
2018-08-08T08:05:35.890Z,996.1
2018-08-08T08:06:45.637Z,996.09
2018-08-08T08:07:55.659Z,996.1
2018-08-08T08:09:05.687Z,996.11
2018-08-08T08:10:15.778Z,996.15
2018-08-08T08:11:25.882Z,996.08
2018-08-08T08:12:35.962Z,996.13
2018-08-08T08:13:46.329Z,996.11
2018-08-08T08:14:56.426Z,996.1
2018-08-08T08:16:06.529Z,996.15
2018-08-08T08:17:16.346Z,996.15
2018-08-08T08:18:26.434Z,996.17
2018-08-08T08:19:36.309Z,996.22
2018-08-08T08:20:46.128Z,996.23
2018-08-08T08:21:56.205Z,996.23
2018-08-08T08:23:06.116Z,996.21
2018-08-08T08:24:16.172Z,996.24
2018-08-08T08:25:26.322Z,996.22
2018-08-08T08:26:36.407Z,996.19
2018-08-08T08:27:46.484Z,996.21
2018-08-08T08:28:56.583Z,996.21
2018-08-08T08:30:06.681Z,996.25
2018-08-08T08:31:16.908Z,996.23
2018-08-08T08:32:26.994Z,996.22
2018-08-08T08:33:37.093Z,996.17
2018-08-08T08:34:47.203Z,996.17
2018-08-08T08:35:57.397Z,996.19
2018-08-08T08:37:07.771Z,996.18
2018-08-08T08:38:17.883Z,996.26
2018-08-08T08:39:27.991Z,996.25
2018-08-08T08:40:38.151Z,996.27
2018-08-08T08:41:48.292Z,996.24
2018-08-08T08:42:58.390Z,996.25
2018-08-08T08:44:08.466Z,996.24
2018-08-08T08:45:18.552Z,996.27
2018-08-08T08:46:28.365Z,996.26
2018-08-08T08:47:38.472Z,996.28
2018-08-08T08:48:48.579Z,996.31
2018-08-08T08:49:58.451Z,996.31
2018-08-08T08:51:08.806Z,996.29
2018-08-08T08:52:18.918Z,996.25
2018-08-08T08:53:29.011Z,996.21
2018-08-08T08:54:39.175Z,996.19
2018-08-08T08:55:49.297Z,996.2
2018-08-08T08:56:59.382Z,996.22
2018-08-08T08:58:09.476Z,996.21
2018-08-08T08:59:19.321Z,996.18
2018-08-08T09:00:29.398Z,996.13
2018-08-08T09:01:39.266Z,996.16
2018-08-08T09:02:49.408Z,996.16
2018-08-08T09:03:59.481Z,996.22
2018-08-08T09:05:09.587Z,996.22
2018-08-08T09:06:19.686Z,996.21
2018-08-08T09:07:29.815Z,996.2
2018-08-08T09:08:40.301Z,996.22
2018-08-08T09:09:50.398Z,996.19
2018-08-08T09:11:00.483Z,996.17
2018-08-08T09:12:10.376Z,996.16
2018-08-08T09:13:20.601Z,996.17
2018-08-08T09:14:30.683Z,996.16
2018-08-08T09:15:40.807Z,996.23
2018-08-08T09:16:50.886Z,996.24
2018-08-08T09:18:01.029Z,996.18
2018-08-08T09:19:10.861Z,996.15
2018-08-08T09:20:20.960Z,996.18
2018-08-08T09:21:30.526Z,996.13
2018-08-08T09:22:40.359Z,996.12
2018-08-08T09:23:50.453Z,996.14
2018-08-08T09:25:00.554Z,996.15
2018-08-08T09:26:10.688Z,996.08
2018-08-08T09:27:20.788Z,996.08
2018-08-08T09:28:30.911Z,996.13
2018-08-08T09:29:41.001Z,996.15
2018-08-08T09:30:51.186Z,996.07
2018-08-08T09:32:01.489Z,996.08
2018-08-08T09:33:11.585Z,996.09
2018-08-08T09:34:21.687Z,996.06
2018-08-08T09:35:31.792Z,996.05
2018-08-08T09:36:41.877Z,996.03
2018-08-08T09:37:52.037Z,996.05
2018-08-08T09:39:02.594Z,996.06
2018-08-08T09:40:12.486Z,996.02
2018-08-08T09:41:23.073Z,996.03
2018-08-08T09:42:33.160Z,996.06
2018-08-08T09:43:43.004Z,996.05
2018-08-08T09:44:52.824Z,996.02
2018-08-08T09:46:02.946Z,996
2018-08-08T09:47:13.035Z,995.97
2018-08-08T09:48:23.129Z,996
2018-08-08T09:49:33.207Z,996
2018-08-08T09:50:43.293Z,995.98
2018-08-08T09:51:53.368Z,995.96
2018-08-08T09:53:03.296Z,995.88
2018-08-08T09:54:13.367Z,995.94
2018-08-08T09:55:23.444Z,995.94
2018-08-08T09:56:33.616Z,995.93
2018-08-08T09:57:43.713Z,995.85
2018-08-08T09:58:53.816Z,995.9
2018-08-08T10:00:03.905Z,995.91
2018-08-08T10:01:13.993Z,995.9
2018-08-08T10:02:23.817Z,995.91
2018-08-08T10:03:33.963Z,995.89
2018-08-08T10:04:44.463Z,995.85
2018-08-08T10:05:54.583Z,995.91
2018-08-08T10:07:04.676Z,995.91
2018-08-08T10:08:14.782Z,995.89
2018-08-08T10:09:24.629Z,995.96
2018-08-08T10:10:34.518Z,995.91
2018-08-08T10:11:44.835Z,995.86
2018-08-08T10:12:54.914Z,995.88
2018-08-08T10:14:05.016Z,995.85
2018-08-08T10:15:15.105Z,995.9
2018-08-08T10:16:25.214Z,995.88
2018-08-08T10:17:35.313Z,995.9
2018-08-08T10:18:45.639Z,995.9
2018-08-08T10:19:55.831Z,995.91
2018-08-08T10:21:05.407Z,995.91
2018-08-08T10:22:15.502Z,995.87
2018-08-08T10:23:25.596Z,995.84
2018-08-08T10:24:35.685Z,995.88
2018-08-08T10:25:45.786Z,995.88
2018-08-08T10:26:55.915Z,995.89
2018-08-08T10:28:06.494Z,995.83
2018-08-08T10:29:16.336Z,995.84
2018-08-08T10:30:26.415Z,995.87
2018-08-08T10:31:36.498Z,995.88
2018-08-08T10:32:46.590Z,995.85
2018-08-08T10:33:56.717Z,995.82
2018-08-08T10:35:06.804Z,995.84
2018-08-08T10:36:16.914Z,995.84
2018-08-08T10:37:26.760Z,995.85
2018-08-08T10:38:36.613Z,995.79
2018-08-08T10:39:46.695Z,995.87
2018-08-08T10:40:56.555Z,995.85
2018-08-08T10:42:06.876Z,995.82
2018-08-08T10:43:16.983Z,995.89
2018-08-08T10:44:26.538Z,995.81
2018-08-08T10:45:36.634Z,995.77
2018-08-08T10:46:46.731Z,995.79
2018-08-08T10:47:56.573Z,995.8
2018-08-08T10:49:06.700Z,995.79
2018-08-08T10:50:16.809Z,995.78
2018-08-08T10:51:26.892Z,995.83
2018-08-08T10:52:36.991Z,995.8
2018-08-08T10:53:46.811Z,995.77
2018-08-08T10:54:56.936Z,995.77
2018-08-08T10:56:07.017Z,995.8
2018-08-08T10:57:17.409Z,995.8
2018-08-08T10:58:27.496Z,995.74
2018-08-08T10:59:37.366Z,995.8
2018-08-08T11:00:47.928Z,995.77
2018-08-08T11:01:57.766Z,995.79
2018-08-08T11:03:07.618Z,995.76
2018-08-08T11:04:18.012Z,995.69
2018-08-08T11:05:28.124Z,995.75
2018-08-08T11:06:38.414Z,995.76
2018-08-08T11:07:48.516Z,995.8
2018-08-08T11:08:58.630Z,995.83
2018-08-08T11:10:08.972Z,995.79
2018-08-08T11:11:18.792Z,995.85
2018-08-08T11:12:28.883Z,995.85
2018-08-08T11:13:38.974Z,995.82
2018-08-08T11:14:49.044Z,995.86
2018-08-08T11:15:59.132Z,995.93
2018-08-08T11:17:09.228Z,995.91
2018-08-08T11:18:19.340Z,995.86
2018-08-08T11:19:29.433Z,995.83
2018-08-08T11:20:39.524Z,995.77
2018-08-08T11:21:49.632Z,995.74
2018-08-08T11:22:59.737Z,995.76
2018-08-08T11:24:09.581Z,995.77
2018-08-08T11:25:19.680Z,995.78
2018-08-08T11:26:29.778Z,995.75
2018-08-08T11:27:39.645Z,995.75
2018-08-08T11:28:49.748Z,995.7
2018-08-08T11:29:59.598Z,995.75
2018-08-08T11:31:09.429Z,995.71
2018-08-08T11:32:19.536Z,995.64
2018-08-08T11:33:29.626Z,995.63
2018-08-08T11:34:39.716Z,995.64
2018-08-08T11:35:49.805Z,995.64
2018-08-08T11:36:59.963Z,995.68
2018-08-08T11:38:10.127Z,995.69
2018-08-08T11:39:20.225Z,995.66
2018-08-08T11:40:30.348Z,995.6
2018-08-08T11:41:40.537Z,995.6
2018-08-08T11:42:50.643Z,995.66
2018-08-08T11:44:00.733Z,995.61
2018-08-08T11:45:10.831Z,995.52
2018-08-08T11:46:20.938Z,995.52
2018-08-08T11:47:31.433Z,995.55
2018-08-08T11:48:41.535Z,995.56
2018-08-08T11:49:51.683Z,995.52
2018-08-08T11:51:01.791Z,995.54
2018-08-08T11:52:11.705Z,995.53
2018-08-08T11:53:21.656Z,995.52
2018-08-08T11:54:31.759Z,995.52
2018-08-08T11:55:41.850Z,995.47
2018-08-08T11:56:51.942Z,995.46
2018-08-08T11:58:01.782Z,995.44
2018-08-08T11:59:11.884Z,995.44
2018-08-08T12:00:22.227Z,995.46
2018-08-08T12:01:32.316Z,995.45
2018-08-08T12:02:42.438Z,995.45
2018-08-08T12:03:52.266Z,995.45
2018-08-08T12:05:02.358Z,995.53
2018-08-08T12:06:12.335Z,995.46
2018-08-08T12:07:22.584Z,995.45
2018-08-08T12:08:32.683Z,995.44
2018-08-08T12:09:42.773Z,995.39
2018-08-08T12:10:52.881Z,995.39
2018-08-08T12:12:03.010Z,995.44
2018-08-08T12:13:13.348Z,995.44
2018-08-08T12:14:23.496Z,995.38
2018-08-08T12:15:33.590Z,995.37
2018-08-08T12:16:43.748Z,995.46
2018-08-08T12:17:53.845Z,995.29
2018-08-08T12:19:03.966Z,995.28
2018-08-08T12:20:14.343Z,995.27
2018-08-08T12:21:24.178Z,995.25
2018-08-08T12:22:34.281Z,995.29
2018-08-08T12:23:44.604Z,995.26
2018-08-08T12:24:54.427Z,995.22
2018-08-08T12:26:04.534Z,995.29
2018-08-08T12:27:14.650Z,995.29
2018-08-08T12:28:24.482Z,995.22
2018-08-08T12:29:34.725Z,995.29
2018-08-08T12:30:44.832Z,995.25
2018-08-08T12:31:54.916Z,995.22
2018-08-08T12:33:04.751Z,995.27
2018-08-08T12:34:14.898Z,995.23
2018-08-08T12:35:25.587Z,995.2
2018-08-08T12:36:36.028Z,995.24
2018-08-08T12:37:46.110Z,995.22
2018-08-08T12:38:56.188Z,995.21
2018-08-08T12:40:06.269Z,995.23
2018-08-08T12:41:16.164Z,995.22
2018-08-08T12:42:26.003Z,995.19
2018-08-08T12:43:36.130Z,995.22
2018-08-08T12:44:46.328Z,995.26
2018-08-08T12:45:56.150Z,995.22
2018-08-08T12:47:06.051Z,995.2
2018-08-08T12:48:16.158Z,995.17
2018-08-08T12:49:26.258Z,995.2
2018-08-08T12:50:36.101Z,995.18
2018-08-08T12:51:46.200Z,995.14
2018-08-08T12:52:56.306Z,995.15
2018-08-08T12:54:06.402Z,995.12
2018-08-08T12:55:16.498Z,995.14
2018-08-08T12:56:26.604Z,995.23
2018-08-08T12:57:36.761Z,995.23
2018-08-08T12:58:46.344Z,995.19
2018-08-08T12:59:56.437Z,995.15
2018-08-08T13:01:06.261Z,995.05
2018-08-08T13:02:16.104Z,995.11
2018-08-08T13:03:26.187Z,995.12
2018-08-08T13:04:35.750Z,995.11
2018-08-08T13:05:45.841Z,995.11
2018-08-08T13:06:55.921Z,995.09
2018-08-08T13:08:06.043Z,995.1
2018-08-08T13:09:16.160Z,995.12
2018-08-08T13:10:25.988Z,995.11
2018-08-08T13:11:35.826Z,995.08
2018-08-08T13:12:45.912Z,995.06
2018-08-08T13:13:55.480Z,995.05
2018-08-08T13:15:05.662Z,995
2018-08-08T13:16:15.810Z,994.99
2018-08-08T13:17:26.254Z,994.96
2018-08-08T13:18:36.109Z,994.96
2018-08-08T13:19:46.190Z,994.92
2018-08-08T13:20:55.790Z,994.94
2018-08-08T13:22:06.206Z,994.95
2018-08-08T13:23:16.332Z,994.95
2018-08-08T13:24:26.444Z,994.92
2018-08-08T13:25:36.050Z,994.96
2018-08-08T13:26:46.127Z,994.98
2018-08-08T13:27:55.967Z,994.98
2018-08-08T13:29:06.051Z,995.04
2018-08-08T13:30:16.143Z,995.04
2018-08-08T13:31:26.239Z,995.04
2018-08-08T13:32:36.334Z,995.01
2018-08-08T13:33:46.173Z,994.99
2018-08-08T13:34:56.193Z,994.99
2018-08-08T13:36:06.295Z,994.99
2018-08-08T13:37:16.387Z,995.01
2018-08-08T13:38:26.480Z,994.99
2018-08-08T13:39:36.598Z,994.95
2018-08-08T13:40:46.622Z,994.98
2018-08-08T13:41:56.452Z,994.93
2018-08-08T13:43:06.292Z,994.92
2018-08-08T13:44:16.131Z,994.91
2018-08-08T13:45:26.344Z,994.91
2018-08-08T13:46:36.133Z,994.98
2018-08-08T13:47:45.991Z,994.91
2018-08-08T13:48:55.832Z,994.96
2018-08-08T13:50:05.981Z,994.99
2018-08-08T13:51:15.818Z,994.96
2018-08-08T13:52:25.906Z,994.98
2018-08-08T13:53:35.754Z,995.01
2018-08-08T13:54:45.575Z,994.99
2018-08-08T13:55:55.673Z,994.9
2018-08-08T13:57:05.775Z,994.93
2018-08-08T13:58:15.877Z,994.93
2018-08-08T13:59:25.811Z,994.89
2018-08-08T14:00:35.966Z,994.91
2018-08-08T14:01:46.056Z,994.87
2018-08-08T14:02:55.880Z,994.88
2018-08-08T14:04:05.960Z,994.83
2018-08-08T14:05:16.073Z,994.85
2018-08-08T14:06:26.164Z,994.85
2018-08-08T14:07:36.298Z,994.8
2018-08-08T14:08:46.429Z,994.81
2018-08-08T14:09:56.546Z,994.75
2018-08-08T14:11:06.693Z,994.79
2018-08-08T14:12:16.808Z,994.74
2018-08-08T14:13:26.843Z,994.79
2018-08-08T14:14:36.996Z,994.81
2018-08-08T14:15:46.865Z,994.79
2018-08-08T14:16:57.346Z,994.78
2018-08-08T14:18:07.447Z,994.81
2018-08-08T14:19:17.273Z,994.69
2018-08-08T14:20:27.358Z,994.72
2018-08-08T14:21:37.570Z,994.74
2018-08-08T14:22:47.423Z,994.74
2018-08-08T14:23:57.574Z,994.71
2018-08-08T14:25:07.696Z,994.7
2018-08-08T14:26:17.788Z,994.63
2018-08-08T14:27:27.882Z,994.62
2018-08-08T14:28:37.954Z,994.67
2018-08-08T14:29:48.054Z,994.66
2018-08-08T14:30:58.134Z,994.67
2018-08-08T14:32:07.970Z,994.65
2018-08-08T14:33:18.071Z,994.7
2018-08-08T14:34:28.178Z,994.63
2018-08-08T14:35:38.035Z,994.74
2018-08-08T14:36:48.528Z,994.8
2018-08-08T14:37:58.366Z,994.78
2018-08-08T14:39:08.473Z,994.82
2018-08-08T14:40:18.321Z,994.87
2018-08-08T14:41:28.171Z,994.88
2018-08-08T14:42:38.060Z,994.88
2018-08-08T14:43:47.906Z,994.95
2018-08-08T14:44:57.994Z,994.87
2018-08-08T14:46:08.164Z,994.86
2018-08-08T14:47:18.340Z,994.82
2018-08-08T14:48:28.669Z,994.78
2018-08-08T14:49:38.771Z,994.76
2018-08-08T14:50:48.651Z,994.72
2018-08-08T14:51:59.161Z,994.75
2018-08-08T14:53:09.248Z,994.73
2018-08-08T14:54:19.355Z,994.77
2018-08-08T14:55:29.430Z,994.73
2018-08-08T14:56:39.266Z,994.74
2018-08-08T14:57:49.467Z,994.76
2018-08-08T14:58:59.540Z,994.76
2018-08-08T15:00:09.640Z,994.8
2018-08-08T15:01:19.746Z,994.76
2018-08-08T15:02:29.859Z,994.77
2018-08-08T15:03:39.955Z,994.79
2018-08-08T15:04:50.048Z,994.77
2018-08-08T15:05:59.662Z,994.77
2018-08-08T15:07:10.041Z,994.76
2018-08-08T15:08:20.171Z,994.8
2018-08-08T15:09:30.006Z,994.8